createdAt,value
2022-08-19T00:00:32.440Z,37.51
2022-08-19T00:03:26.030Z,37.50
2022-08-19T00:06:01.528Z,37.91
2022-08-19T00:08:30.666Z,37.15
2022-08-19T00:11:11.708Z,37.96
2022-08-19T00:13:57.843Z,38.21
2022-08-19T00:16:34.493Z,37.88
2022-08-19T00:19:24.575Z,37.60
2022-08-19T00:22:09.317Z,37.70
2022-08-19T00:26:05.078Z,38.20
2022-08-19T00:32:28.773Z,37.73
2022-08-19T00:35:12.621Z,38.49
2022-08-19T00:37:54.918Z,38.10
2022-08-19T00:40:36.079Z,39.04
2022-08-19T00:43:14.824Z,39.21
2022-08-19T00:45:46.540Z,38.47
2022-08-19T00:48:25.756Z,39.13
2022-08-19T00:51:40.273Z,38.99
2022-08-19T00:54:10.464Z,39.06
2022-08-19T00:56:54.251Z,39.06
2022-08-19T01:00:13.427Z,39.19
2022-08-19T01:08:35.157Z,41.32
2022-08-19T01:12:15.813Z,41.79
2022-08-19T01:15:32.247Z,43.05
2022-08-19T01:18:10.318Z,43.58
2022-08-19T01:20:44.408Z,44.24
2022-08-19T01:23:27.530Z,44.29
2022-08-19T01:27:29.519Z,44.70
2022-08-19T01:30:39.695Z,45.52
2022-08-19T01:49:05.251Z,44.54
2022-08-19T01:51:39.590Z,44.37
2022-08-19T01:54:10.678Z,45.31
2022-08-19T01:56:39.837Z,45.32
2022-08-19T01:59:15.593Z,45.13
2022-08-19T02:01:44.569Z,45.56
2022-08-19T02:04:12.561Z,45.84
2022-08-19T02:07:40.139Z,46.14
2022-08-19T02:14:39.093Z,46.03
2022-08-19T02:17:38.004Z,46.13
2022-08-19T02:20:14.306Z,45.85
2022-08-19T02:22:45.396Z,46.19
2022-08-19T02:25:16.047Z,46.19
2022-08-19T02:27:46.835Z,46.30
2022-08-19T02:33:46.933Z,46.68
2022-08-19T02:36:16.525Z,46.94
2022-08-19T02:38:54.966Z,46.63
2022-08-19T02:41:30.695Z,46.29
2022-08-19T02:44:26.477Z,46.64
2022-08-19T02:46:52.527Z,46.28
2022-08-19T02:49:21.549Z,46.38
2022-08-19T02:51:49.759Z,46.50
2022-08-19T02:54:20.526Z,46.65
2022-08-19T02:56:48.164Z,46.43
2022-08-19T02:59:15.876Z,46.80
2022-08-19T03:01:44.138Z,46.43
2022-08-19T03:04:15.818Z,46.29
2022-08-19T03:06:54.066Z,46.09
2022-08-19T03:09:24.482Z,46.21
2022-08-19T03:11:52.984Z,46.48
2022-08-19T03:14:20.500Z,46.29
2022-08-19T03:16:53.451Z,46.26
2022-08-19T03:19:24.993Z,46.20
2022-08-19T03:21:53.321Z,47.11
2022-08-19T03:24:24.619Z,46.81
2022-08-19T03:27:00.371Z,46.92
2022-08-19T03:29:34.333Z,46.80
2022-08-19T03:32:31.708Z,47.42
2022-08-19T03:35:01.517Z,47.48
2022-08-19T03:37:29.620Z,47.39
2022-08-19T03:39:58.076Z,47.26
2022-08-19T03:42:38.607Z,47.56
2022-08-19T03:45:18.204Z,48.23
2022-08-19T03:47:53.804Z,47.68
2022-08-19T03:50:21.652Z,47.94
2022-08-19T03:52:53.529Z,48.27
2022-08-19T04:04:29.175Z,47.96
2022-08-19T04:10:32.040Z,47.49
2022-08-19T04:13:02.135Z,48.01
2022-08-19T04:15:44.632Z,47.19
2022-08-19T04:23:52.751Z,47.22
2022-08-19T04:30:09.475Z,46.67
2022-08-19T04:44:52.576Z,46.39
2022-08-19T04:56:01.306Z,46.36
2022-08-19T04:58:45.781Z,46.79
2022-08-19T05:01:56.729Z,46.58
2022-08-19T05:05:18.490Z,47.06
2022-08-19T05:12:34.411Z,48.22
2022-08-19T05:16:34.530Z,49.60
2022-08-19T05:20:14.120Z,50.46
2022-08-19T05:23:50.759Z,51.44
2022-08-19T05:26:52.899Z,51.93
2022-08-19T05:33:42.890Z,51.76
2022-08-19T05:36:22.078Z,52.26
2022-08-19T05:39:06.142Z,52.01
2022-08-19T05:41:40.070Z,51.61
2022-08-19T05:44:15.185Z,50.93
2022-08-19T05:46:52.620Z,51.08
2022-08-19T05:49:24.253Z,50.75
2022-08-19T05:52:01.552Z,50.81
2022-08-19T05:54:57.067Z,50.94
2022-08-19T06:11:38.187Z,48.16
2022-08-19T06:14:16.476Z,47.71
2022-08-19T06:16:45.077Z,47.45
2022-08-19T06:19:16.814Z,47.62
2022-08-19T06:21:48.513Z,47.65
2022-08-19T06:24:23.087Z,48.02
2022-08-19T06:27:03.857Z,48.29
2022-08-19T06:29:40.122Z,47.68
2022-08-19T06:32:09.628Z,47.34
2022-08-19T06:34:37.273Z,47.08
2022-08-19T06:37:06.743Z,47.05
2022-08-19T06:39:38.364Z,46.86
2022-08-19T06:42:11.136Z,47.41
2022-08-19T06:44:42.662Z,47.70
2022-08-19T06:47:23.618Z,46.56
2022-08-19T06:50:03.498Z,46.71
2022-08-19T06:52:36.683Z,46.93
2022-08-19T06:55:19.027Z,47.33
2022-08-19T06:58:18.159Z,47.73
2022-08-19T07:01:38.951Z,47.65
2022-08-19T07:04:26.119Z,47.08
2022-08-19T07:07:20.022Z,46.95
2022-08-19T07:10:09.379Z,46.80
2022-08-19T07:12:46.794Z,47.16
2022-08-19T07:15:25.204Z,47.58
2022-08-19T07:17:57.904Z,45.95
2022-08-19T07:20:43.451Z,45.36
2022-08-19T07:23:22.180Z,44.32
2022-08-19T07:28:52.897Z,44.09
2022-08-19T07:31:27.624Z,43.96
2022-08-19T07:34:01.111Z,43.75
2022-08-19T07:36:33.363Z,43.36
2022-08-19T07:39:07.881Z,42.38
2022-08-19T07:41:50.398Z,42.84
2022-08-19T07:44:29.637Z,42.31
2022-08-19T07:47:48.157Z,42.08
2022-08-19T07:50:13.391Z,41.93
2022-08-19T07:52:51.082Z,41.45
2022-08-19T07:55:41.080Z,40.86
2022-08-19T07:58:39.866Z,40.51
2022-08-19T08:01:26.165Z,40.62
2022-08-19T08:04:27.323Z,39.66
2022-08-19T08:07:21.706Z,40.25
2022-08-19T08:10:21.157Z,39.40
2022-08-19T08:13:09.354Z,38.77
2022-08-19T08:15:48.635Z,38.17
2022-08-19T08:18:35.485Z,39.49
2022-08-19T08:21:06.102Z,39.53
2022-08-19T08:23:33.586Z,39.94
2022-08-19T08:26:01.490Z,38.35
2022-08-19T08:28:30.727Z,38.25
2022-08-19T08:30:59.387Z,38.01
2022-08-19T08:33:33.991Z,38.76
2022-08-19T08:36:06.233Z,38.83
2022-08-19T08:38:38.938Z,38.68
2022-08-19T08:41:45.074Z,38.96
2022-08-19T08:44:20.202Z,38.83
2022-08-19T08:46:55.399Z,38.97
2022-08-19T08:49:35.228Z,37.78
2022-08-19T08:52:14.854Z,38.06
2022-08-19T08:54:49.068Z,38.72
2022-08-19T08:58:04.363Z,38.36
2022-08-19T09:00:35.725Z,37.70
2022-08-19T09:03:23.160Z,36.67
2022-08-19T09:06:11.999Z,35.98
2022-08-19T09:08:56.868Z,35.82
2022-08-19T09:11:49.796Z,35.87
2022-08-19T09:14:52.636Z,35.74
2022-08-19T09:17:33.928Z,35.69
2022-08-19T09:20:24.464Z,35.21
2022-08-19T09:23:18.026Z,35.41
2022-08-19T09:26:35.314Z,35.90
2022-08-19T09:29:17.967Z,35.54
2022-08-19T09:31:59.488Z,35.50
2022-08-19T09:35:08.869Z,36.17
2022-08-19T09:37:47.285Z,36.38
2022-08-19T09:40:20.030Z,35.59
2022-08-19T09:43:11.433Z,35.87
2022-08-19T09:45:50.002Z,34.89
2022-08-19T09:48:19.129Z,34.47
2022-08-19T09:50:52.721Z,34.44
2022-08-19T09:53:25.475Z,33.93
2022-08-19T09:55:55.889Z,34.22
2022-08-19T09:58:28.631Z,33.41
2022-08-19T10:00:57.610Z,34.37
2022-08-19T10:03:30.112Z,34.00
2022-08-19T10:06:01.803Z,33.49
2022-08-19T10:08:34.199Z,32.81
2022-08-19T10:11:27.266Z,31.71
2022-08-19T10:13:55.836Z,31.49
2022-08-19T10:16:26.055Z,31.14
2022-08-19T10:18:59.893Z,31.41
2022-08-19T10:21:33.266Z,30.80
2022-08-19T10:24:05.116Z,31.69
2022-08-19T10:26:38.218Z,30.73
2022-08-19T10:29:09.481Z,31.28
2022-08-19T10:31:59.913Z,31.31
2022-08-19T10:34:28.429Z,31.30
2022-08-19T10:37:00.504Z,31.01
2022-08-19T10:39:32.602Z,31.30
2022-08-19T10:42:05.018Z,30.47
2022-08-19T10:44:33.235Z,30.50
2022-08-19T10:47:03.641Z,31.27
2022-08-19T10:50:14.617Z,30.95
2022-08-19T10:52:49.249Z,29.85
2022-08-19T10:55:47.741Z,29.72
2022-08-19T10:58:23.550Z,29.76
2022-08-19T11:00:55.514Z,29.17
2022-08-19T11:03:29.247Z,29.34
2022-08-19T11:06:08.036Z,28.69
2022-08-19T11:08:38.737Z,28.44
2022-08-19T11:11:07.968Z,28.75
2022-08-19T11:13:38.453Z,28.48
2022-08-19T11:16:15.030Z,29.00
2022-08-19T11:18:49.873Z,29.18
2022-08-19T11:21:22.233Z,28.81
2022-08-19T11:23:54.376Z,28.59
2022-08-19T11:26:24.605Z,27.98
2022-08-19T11:28:55.319Z,27.22
2022-08-19T11:31:29.107Z,26.93
2022-08-19T11:33:58.470Z,26.96
2022-08-19T11:36:25.780Z,27.57
2022-08-19T11:38:53.858Z,27.28
2022-08-19T11:41:24.201Z,27.39
2022-08-19T11:43:53.929Z,27.38
2022-08-19T11:46:23.439Z,27.78
2022-08-19T11:48:51.705Z,27.05
2022-08-19T11:51:25.925Z,27.75
2022-08-19T11:53:55.759Z,26.76
2022-08-19T11:56:25.159Z,26.80
2022-08-19T11:58:53.491Z,26.52
2022-08-19T12:01:23.660Z,25.32
2022-08-19T12:03:53.770Z,25.33
2022-08-19T12:06:29.477Z,25.68
2022-08-19T12:09:02.909Z,25.02
2022-08-19T12:11:31.290Z,25.09
2022-08-19T12:14:02.472Z,25.71
2022-08-19T12:16:33.719Z,24.67
2022-08-19T12:19:05.166Z,25.08
2022-08-19T12:21:41.627Z,25.05
2022-08-19T12:24:36.755Z,25.30
2022-08-19T12:27:12.857Z,25.12
2022-08-19T12:29:46.601Z,25.46
2022-08-19T12:32:16.859Z,25.04
2022-08-19T12:34:53.966Z,25.39
2022-08-19T12:37:24.852Z,25.38
2022-08-19T12:39:55.217Z,24.83
2022-08-19T12:42:25.171Z,24.75
2022-08-19T12:44:57.236Z,24.86
2022-08-19T12:47:27.561Z,24.21
2022-08-19T12:49:56.139Z,24.52
2022-08-19T12:52:26.878Z,24.49
2022-08-19T12:54:58.134Z,24.29
2022-08-19T12:57:32.995Z,24.31
2022-08-19T13:00:17.096Z,24.71
2022-08-19T13:02:46.899Z,24.55
2022-08-19T13:05:17.124Z,24.06
2022-08-19T13:07:47.585Z,24.34
2022-08-19T13:10:17.354Z,24.12
2022-08-19T13:12:48.170Z,23.94
2022-08-19T13:15:24.517Z,23.54
2022-08-19T13:18:01.099Z,23.44
2022-08-19T13:20:46.719Z,23.21
2022-08-19T13:23:41.302Z,23.46
2022-08-19T13:26:20.022Z,23.23
2022-08-19T13:29:20.960Z,23.07
2022-08-19T13:32:17.711Z,22.88
2022-08-19T13:34:49.765Z,22.77
2022-08-19T13:37:17.932Z,23.53
2022-08-19T13:39:48.753Z,22.54
2022-08-19T13:42:29.387Z,23.16
2022-08-19T13:44:57.680Z,22.68
2022-08-19T13:47:28.150Z,22.31
2022-08-19T13:50:04.204Z,22.51
2022-08-19T13:52:46.306Z,22.39
2022-08-19T13:55:50.630Z,22.67
2022-08-19T13:58:28.530Z,22.51
2022-08-19T14:01:00.826Z,22.34
2022-08-19T14:03:29.146Z,22.60
2022-08-19T14:05:57.515Z,22.59
2022-08-19T14:08:26.560Z,22.93
2022-08-19T14:10:55.463Z,22.87
2022-08-19T14:13:24.896Z,22.68
2022-08-19T14:15:52.427Z,22.06
2022-08-19T14:18:24.413Z,21.42
2022-08-19T14:21:00.527Z,21.75
2022-08-19T14:23:29.004Z,21.39
2022-08-19T14:26:13.464Z,21.81
2022-08-19T14:28:48.787Z,21.93
2022-08-19T14:31:20.685Z,22.43
2022-08-19T14:33:59.186Z,21.60
2022-08-19T14:36:39.278Z,21.91
2022-08-19T14:39:11.295Z,21.71
2022-08-19T14:41:49.703Z,22.08
2022-08-19T14:44:28.106Z,22.72
2022-08-19T14:47:00.688Z,22.39
2022-08-19T14:49:48.412Z,21.64
2022-08-19T14:52:22.740Z,21.68
2022-08-19T14:54:50.525Z,21.92
2022-08-19T14:57:19.895Z,22.50
2022-08-19T14:59:47.543Z,22.39
2022-08-19T15:02:33.362Z,21.98
2022-08-19T15:05:03.147Z,21.54
2022-08-19T15:07:31.762Z,21.69
2022-08-19T15:10:03.208Z,22.38
2022-08-19T15:12:43.467Z,22.75
2022-08-19T15:15:15.914Z,22.75
2022-08-19T15:17:54.850Z,23.51
2022-08-19T15:20:25.843Z,23.99
2022-08-19T15:22:55.933Z,23.83
2022-08-19T15:25:30.133Z,24.60
2022-08-19T15:28:01.159Z,24.35
2022-08-19T15:30:32.595Z,24.68
2022-08-19T15:33:01.723Z,23.85
2022-08-19T15:35:29.219Z,24.42
2022-08-19T15:37:57.064Z,25.85
2022-08-19T15:40:27.465Z,25.86
2022-08-19T15:42:59.065Z,26.21
2022-08-19T15:45:33.016Z,29.04
2022-08-19T15:48:02.150Z,31.90
2022-08-19T15:50:32.325Z,32.23
2022-08-19T15:53:09.110Z,33.15
2022-08-19T15:55:43.097Z,33.42
2022-08-19T15:58:30.178Z,34.38
2022-08-19T16:01:20.873Z,34.48
2022-08-19T16:04:12.655Z,35.33
2022-08-19T16:06:48.696Z,36.55
2022-08-19T16:09:17.664Z,36.82
2022-08-19T16:11:56.429Z,37.49
2022-08-19T16:14:25.329Z,37.56
2022-08-19T16:17:01.632Z,38.16
2022-08-19T16:19:32.611Z,39.25
2022-08-19T16:22:08.525Z,39.78
2022-08-19T16:24:37.742Z,40.42
2022-08-19T16:27:06.345Z,40.80
2022-08-19T16:29:39.322Z,41.00
2022-08-19T16:32:14.743Z,41.22
2022-08-19T16:34:43.698Z,41.15
2022-08-19T16:37:11.489Z,41.74
2022-08-19T16:39:39.773Z,41.71
2022-08-19T16:42:16.119Z,41.76
2022-08-19T16:44:46.047Z,42.02
2022-08-19T16:47:15.684Z,42.28
2022-08-19T16:49:52.906Z,42.65
2022-08-19T16:52:27.341Z,42.61
2022-08-19T16:54:55.848Z,42.75
2022-08-19T16:57:24.166Z,42.88
2022-08-19T17:00:03.579Z,43.08
2022-08-19T17:02:46.340Z,43.80
2022-08-19T17:05:20.760Z,43.43
2022-08-19T17:08:03.049Z,42.08
2022-08-19T17:10:32.363Z,40.67
2022-08-19T17:13:29.281Z,40.29
2022-08-19T17:15:59.295Z,39.34
2022-08-19T17:18:31.676Z,39.30
2022-08-19T17:21:02.055Z,40.38
2022-08-19T17:23:42.382Z,40.74
2022-08-19T17:26:18.122Z,40.84
2022-08-19T17:28:53.135Z,41.00
2022-08-19T17:31:27.554Z,40.88
2022-08-19T17:34:04.281Z,41.14
2022-08-19T17:40:35.599Z,40.37
2022-08-19T17:43:05.808Z,40.47
2022-08-19T17:45:33.170Z,39.55
2022-08-19T17:48:03.394Z,39.77
2022-08-19T17:50:36.224Z,39.92
2022-08-19T17:53:05.790Z,39.85
2022-08-19T17:55:34.738Z,39.84
2022-08-19T17:58:06.211Z,40.35
2022-08-19T18:00:39.557Z,39.68
2022-08-19T18:03:21.712Z,39.85
2022-08-19T18:05:50.668Z,39.86
2022-08-19T18:08:19.348Z,39.83
2022-08-19T18:10:46.820Z,39.73
2022-08-19T18:13:17.280Z,40.47
2022-08-19T18:15:45.058Z,40.50
2022-08-19T18:18:15.005Z,41.12
2022-08-19T18:21:19.934Z,41.04
2022-08-19T18:24:37.703Z,41.23
2022-08-19T18:27:42.470Z,41.66
2022-08-19T18:30:44.146Z,42.85
2022-08-19T18:33:15.721Z,43.07
2022-08-19T18:35:46.715Z,44.46
2022-08-19T18:38:37.895Z,45.18
2022-08-19T18:41:25.116Z,44.96
2022-08-19T18:44:12.393Z,45.35
2022-08-19T18:46:58.420Z,45.82
2022-08-19T18:49:31.960Z,46.50
2022-08-19T18:52:00.218Z,46.29
2022-08-19T18:54:29.328Z,46.87
2022-08-19T18:56:57.296Z,47.18
2022-08-19T18:59:29.830Z,46.98
2022-08-19T19:02:00.612Z,47.40
2022-08-19T19:04:38.785Z,48.01
2022-08-19T19:07:08.829Z,47.84
2022-08-19T19:09:38.506Z,47.43
2022-08-19T19:12:30.893Z,47.71
2022-08-19T19:14:59.055Z,47.73
2022-08-19T19:17:28.401Z,47.86
2022-08-19T19:19:59.949Z,47.86
2022-08-19T19:22:29.802Z,47.79
2022-08-19T19:24:59.545Z,48.13
2022-08-19T19:27:27.148Z,48.22
2022-08-19T19:29:55.832Z,48.13
2022-08-19T19:32:28.713Z,48.20
2022-08-19T19:34:59.027Z,48.09
2022-08-19T19:37:26.629Z,47.94
2022-08-19T19:39:54.317Z,48.07
2022-08-19T19:42:24.382Z,48.44
2022-08-19T19:44:56.273Z,47.34
2022-08-19T19:47:25.833Z,47.86
2022-08-19T19:50:15.212Z,47.51
2022-08-19T19:52:47.183Z,47.78
2022-08-19T19:55:20.179Z,47.13
2022-08-19T19:57:49.082Z,47.26
2022-08-19T20:00:19.177Z,47.14
2022-08-19T20:02:50.398Z,47.08
2022-08-19T20:05:21.639Z,45.91
2022-08-19T20:08:09.820Z,46.80
2022-08-19T20:10:40.108Z,47.54
2022-08-19T20:13:09.597Z,46.36
2022-08-19T20:15:46.039Z,47.21
2022-08-19T20:18:15.803Z,47.90
2022-08-19T20:20:50.218Z,47.04
2022-08-19T20:23:22.392Z,47.86
2022-08-19T20:25:59.370Z,46.11
2022-08-19T20:29:13.383Z,48.17
2022-08-19T20:31:57.219Z,49.52
2022-08-19T20:34:52.076Z,49.65
2022-08-19T20:37:24.817Z,49.47
2022-08-19T20:39:52.498Z,49.54
2022-08-19T20:42:20.384Z,49.89
2022-08-19T20:44:48.005Z,49.63
2022-08-19T20:47:15.814Z,49.03
2022-08-19T20:49:43.143Z,48.50
2022-08-19T20:52:11.010Z,49.30
2022-08-19T20:54:38.576Z,49.63
2022-08-19T20:57:06.029Z,49.31
2022-08-19T20:59:41.955Z,49.30
2022-08-19T21:02:12.428Z,49.57
2022-08-19T21:04:39.875Z,48.73
2022-08-19T21:07:09.558Z,48.89
2022-08-19T21:09:38.258Z,48.40
2022-08-19T21:12:07.268Z,48.10
2022-08-19T21:14:41.883Z,47.92
2022-08-19T21:17:09.726Z,48.59
2022-08-19T21:19:37.485Z,48.61
2022-08-19T21:22:05.765Z,48.02
2022-08-19T21:24:33.834Z,48.21
2022-08-19T21:27:01.141Z,47.47
2022-08-19T21:29:28.461Z,47.49
2022-08-19T21:31:56.045Z,47.15
2022-08-19T21:34:23.599Z,46.66
2022-08-19T21:36:51.261Z,46.92
2022-08-19T21:39:18.973Z,46.27
2022-08-19T21:41:46.590Z,46.42
2022-08-19T21:44:14.746Z,46.88
2022-08-19T21:46:42.244Z,47.07
2022-08-19T21:49:13.876Z,46.91
2022-08-19T21:51:45.921Z,47.34
2022-08-19T21:54:14.373Z,47.30
2022-08-19T21:56:42.127Z,46.91
2022-08-19T21:59:10.070Z,47.20
2022-08-19T22:01:37.898Z,46.94
2022-08-19T22:04:05.548Z,47.41
2022-08-19T22:06:34.409Z,47.14
2022-08-19T22:09:02.119Z,47.26
2022-08-19T22:11:30.557Z,46.02
2022-08-19T22:13:57.983Z,47.11
2022-08-19T22:16:25.766Z,46.97
2022-08-19T22:18:54.281Z,47.26
2022-08-19T22:21:39.771Z,46.82
2022-08-19T22:24:09.244Z,47.06
2022-08-19T22:26:36.641Z,46.39
2022-08-19T22:29:04.091Z,46.37
2022-08-19T22:31:32.382Z,47.08
2022-08-19T22:34:03.706Z,48.05
2022-08-19T22:36:32.359Z,48.49
2022-08-19T22:39:00.422Z,47.24
2022-08-19T22:41:27.916Z,46.79
2022-08-19T22:43:57.634Z,46.59
2022-08-19T22:46:25.242Z,46.45
2022-08-19T22:49:00.588Z,45.87
2022-08-19T22:51:48.067Z,45.96
2022-08-19T22:54:16.292Z,46.22
2022-08-19T22:56:44.094Z,46.33
2022-08-19T22:59:11.632Z,46.22
2022-08-19T23:01:41.877Z,46.55
2022-08-19T23:04:10.355Z,46.39
2022-08-19T23:06:41.451Z,46.58
2022-08-19T23:09:10.466Z,47.22
2022-08-19T23:11:42.257Z,47.32
2022-08-19T23:14:11.504Z,47.71
2022-08-19T23:16:41.398Z,47.82
2022-08-19T23:19:10.476Z,47.66
2022-08-19T23:21:43.214Z,47.69
2022-08-19T23:24:12.005Z,47.28
2022-08-19T23:26:59.940Z,47.43
2022-08-19T23:29:46.135Z,47.52
2022-08-19T23:32:16.206Z,47.82
2022-08-19T23:34:45.199Z,47.58
2022-08-19T23:37:12.636Z,48.11
2022-08-19T23:39:40.793Z,48.16
2022-08-19T23:42:14.265Z,48.45
2022-08-19T23:44:51.949Z,48.48
2022-08-19T23:47:21.492Z,48.60
2022-08-19T23:49:49.002Z,49.03
2022-08-19T23:52:16.432Z,49.12
2022-08-19T23:54:44.195Z,48.88
2022-08-19T23:57:14.409Z,49.25
2022-08-19T23:59:45.467Z,49.36
